Konstantis IV — SY6956 — position and weather

sailwx.info

Track history (hours):
 
Tides and Currents Weather Stations Pressure Air Temp Water Temp Dewpoint Dewpoint Depression Visibility Wind Speed Wind Dir Waves Ship Positions

Konstantis IV

Last reported at 2017-Sep-20 04:29 UTC. Time now 2017-Sep-21 10:41 UTC.
Position N 40°51' E 024°19'.

Length 29 m; draft 2.4 m.

Type: Fishing. MMSI: 240488000.

Date/timePositionNaut miles runAvg speedWind from/ knotsBaromVisibWave heightAir tempDewpointWater temp
2017-Sep-20 04:29N 40°51' E 024°19'510.2
2017-Sep-20 04:00N 40°47' E 024°23'610.9
2017-Sep-20 03:30N 40°41' E 024°25'3 6.0
2017-Sep-20 03:00N 40°39' E 024°26'0 0.3
2017-Sep-20 02:30N 40°38' E 024°26'0 0.3
2017-Sep-20 02:00N 40°38' E 024°26'0 0.9
2017-Sep-20 01:29N 40°38' E 024°26'0 0.8
2017-Sep-20 00:55N 40°38' E 024°26'1 1.4
2017-Sep-20 00:25N 40°38' E 024°26'0 0.1
2017-Sep-20 00:00N 40°38' E 024°26'0 0.0
2017-Sep-19 23:30N 40°38' E 024°26'0 0.0
2017-Sep-19 23:00N 40°38' E 024°26'0 0.0
2017-Sep-19 22:30N 40°38' E 024°26'0 0.1
2017-Sep-19 21:59N 40°38' E 024°26'0 0.0
2017-Sep-19 21:30N 40°38' E 024°26'0 0.3
2017-Sep-19 21:00N 40°38' E 024°26'0 0.4
2017-Sep-19 20:27N 40°38' E 024°26'1 1.2
2017-Sep-19 20:00N 40°38' E 024°26'0 0.1
2017-Sep-19 19:25N 40°38' E 024°26'0 0.0
2017-Sep-19 19:00N 40°38' E 024°26'0 0.0
2017-Sep-19 18:27N 40°38' E 024°26'0 0.1
2017-Sep-19 17:58N 40°38' E 024°26'  
2017-Sep-16 21:21N 40°26' E 024°11'1 3.2
2017-Sep-16 21:01N 40°25' E 024°11'0 0.3
2017-Sep-16 20:31N 40°25' E 024°11'0 0.8
2017-Sep-16 20:01N 40°24' E 024°11'0 0.1
2017-Sep-16 19:31N 40°24' E 024°11'0 0.0
2017-Sep-16 19:01N 40°24' E 024°11'0 0.0
2017-Sep-16 18:30N 40°24' E 024°11'0 0.4
2017-Sep-16 17:56N 40°24' E 024°11'1 2.8
2017-Sep-16 17:30N 40°24' E 024°10'2 3.9
2017-Sep-16 17:00N 40°26' E 024°10'5 9.3
2017-Sep-16 16:29N 40°31' E 024°12'5 9.9
2017-Sep-16 16:00N 40°35' E 024°14'5 9.9
2017-Sep-16 15:30N 40°40' E 024°16'15 0.9
2017-Sep-15 23:38N 40°26' E 024°09'0 0.2
2017-Sep-15 23:30N 40°26' E 024°09'1 1.7
2017-Sep-15 22:39N 40°26' E 024°07'210.3
2017-Sep-15 22:30N 40°27' E 024°05'5 9.3
2017-Sep-15 22:00N 40°27' E 023°59'510.6
2017-Sep-15 21:31N 40°24' E 023°54'2 4.4
2017-Sep-15 21:01N 40°25' E 023°56'510.5
2017-Sep-15 20:30N 40°28' E 024°02'510.4
2017-Sep-15 20:01N 40°26' E 024°08'0 0.1
2017-Sep-15 19:30N 40°26' E 024°08'0 1.0
2017-Sep-15 19:01N 40°26' E 024°09'0 0.1
2017-Sep-15 18:30N 40°26' E 024°09'0 0.0
2017-Sep-15 17:50N 40°26' E 024°09'0 0.1
2017-Sep-15 17:30N 40°26' E 024°09'  
2017-Sep-10 13:57N 40°50' E 024°20'  
Track history (hours):
 
Tides and Currents Weather Stations Pressure Air Temp Water Temp Dewpoint Dewpoint Depression Visibility Wind Speed Wind Dir Waves Ship Positions

Konstantis IV

Last reported at 2017-Sep-20 04:29 UTC. Time now 2017-Sep-21 10:41 UTC.
Position N 40°51' E 024°19'.

Length 29 m; draft 2.4 m.

Type: Fishing. MMSI: 240488000.

Date/timePositionNaut miles runAvg speedWind from/ knotsBaromVisibWave heightAir tempDewpointWater temp
2017-Sep-20 04:29N 40°51' E 024°19'510.2
2017-Sep-20 04:00N 40°47' E 024°23'610.9
2017-Sep-20 03:30N 40°41' E 024°25'3 6.0
2017-Sep-20 03:00N 40°39' E 024°26'0 0.3
2017-Sep-20 02:30N 40°38' E 024°26'0 0.3
2017-Sep-20 02:00N 40°38' E 024°26'0 0.9
2017-Sep-20 01:29N 40°38' E 024°26'0 0.8
2017-Sep-20 00:55N 40°38' E 024°26'1 1.4
2017-Sep-20 00:25N 40°38' E 024°26'0 0.1
2017-Sep-20 00:00N 40°38' E 024°26'0 0.0
2017-Sep-19 23:30N 40°38' E 024°26'0 0.0
2017-Sep-19 23:00N 40°38' E 024°26'0 0.0
2017-Sep-19 22:30N 40°38' E 024°26'0 0.1
2017-Sep-19 21:59N 40°38' E 024°26'0 0.0
2017-Sep-19 21:30N 40°38' E 024°26'0 0.3
2017-Sep-19 21:00N 40°38' E 024°26'0 0.4
2017-Sep-19 20:27N 40°38' E 024°26'1 1.2
2017-Sep-19 20:00N 40°38' E 024°26'0 0.1
2017-Sep-19 19:25N 40°38' E 024°26'0 0.0
2017-Sep-19 19:00N 40°38' E 024°26'0 0.0
2017-Sep-19 18:27N 40°38' E 024°26'0 0.1
2017-Sep-19 17:58N 40°38' E 024°26'  
2017-Sep-16 21:21N 40°26' E 024°11'1 3.2
2017-Sep-16 21:01N 40°25' E 024°11'0 0.3
2017-Sep-16 20:31N 40°25' E 024°11'0 0.8
2017-Sep-16 20:01N 40°24' E 024°11'0 0.1
2017-Sep-16 19:31N 40°24' E 024°11'0 0.0
2017-Sep-16 19:01N 40°24' E 024°11'0 0.0
2017-Sep-16 18:30N 40°24' E 024°11'0 0.4
2017-Sep-16 17:56N 40°24' E 024°11'1 2.8
2017-Sep-16 17:30N 40°24' E 024°10'2 3.9
2017-Sep-16 17:00N 40°26' E 024°10'5 9.3
2017-Sep-16 16:29N 40°31' E 024°12'5 9.9
2017-Sep-16 16:00N 40°35' E 024°14'5 9.9
2017-Sep-16 15:30N 40°40' E 024°16'15 0.9
2017-Sep-15 23:38N 40°26' E 024°09'0 0.2
2017-Sep-15 23:30N 40°26' E 024°09'1 1.7
2017-Sep-15 22:39N 40°26' E 024°07'210.3
2017-Sep-15 22:30N 40°27' E 024°05'5 9.3
2017-Sep-15 22:00N 40°27' E 023°59'510.6
2017-Sep-15 21:31N 40°24' E 023°54'2 4.4
2017-Sep-15 21:01N 40°25' E 023°56'510.5
2017-Sep-15 20:30N 40°28' E 024°02'510.4
2017-Sep-15 20:01N 40°26' E 024°08'0 0.1
2017-Sep-15 19:30N 40°26' E 024°08'0 1.0
2017-Sep-15 19:01N 40°26' E 024°09'0 0.1
2017-Sep-15 18:30N 40°26' E 024°09'0 0.0
2017-Sep-15 17:50N 40°26' E 024°09'0 0.1
2017-Sep-15 17:30N 40°26' E 024°09'  
2017-Sep-10 13:57N 40°50' E 024°20'  

Dump ship's entire track history